Time;durP1;ratioP1;P1;durP2;ratioP2;P2;SDS_P1;SDS_P2;PMS_P1;PMS_P2;Temp;Humidity;BMP_temperature;BMP_pressure;BME280_temperature;BME280_humidity;BME280_pressure;Samples;Min_cycle;Max_cycle;Signal;HPM_P1;HPM_P2
2022/09/23 00:01:29;;;;;;;;;;;20.30;69.10;;;;;;5010150;28;884;-71
2022/09/23 00:03:55;;;;;;;;;;;20.30;69.10;;;;;;5003974;28;1898;-72
2022/09/23 00:06:21;;;;;;;;;;;20.30;69.90;;;;;;5009605;28;1462;-71
2022/09/23 00:08:48;;;;;;;;;;;20.30;69.20;;;;;;5009751;28;1034;-71
2022/09/23 00:11:14;;;;;;;;;;;20.30;69.20;;;;;;5008971;28;882;-71
2022/09/23 00:13:40;;;;;;;;;;;20.30;69.20;;;;;;5007092;28;1647;-71
2022/09/23 00:16:06;;;;;;;;;;;20.30;69.20;;;;;;5010087;28;1285;-71
2022/09/23 00:18:32;;;;;;;;;;;20.30;69.20;;;;;;5009522;28;934;-71
2022/09/23 00:21:01;;;;;;;;;;;20.30;69.20;;;;;;5011494;28;999;-71
2022/09/23 00:23:26;;;;;;;;;;;20.30;69.20;;;;;;5012856;28;2007;-71
2022/09/23 00:25:55;;;;;;;;;;;20.30;69.20;;;;;;5012722;28;1213;-71
2022/09/23 00:28:21;;;;;;;;;;;20.30;69.30;;;;;;5011284;28;875;-73
2022/09/23 00:30:46;;;;;;;;;;;20.30;69.30;;;;;;5010652;28;936;-73
2022/09/23 00:33:11;;;;;;;;;;;20.30;69.30;;;;;;5013540;28;1411;-72
2022/09/23 00:35:37;;;;;;;;;;;20.30;69.20;;;;;;5014014;28;1230;-72
2022/09/23 00:38:02;;;;;;;;;;;20.30;69.20;;;;;;5014231;28;1213;-73
2022/09/23 00:40:28;;;;;;;;;;;20.30;69.30;;;;;;5012909;28;975;-72
2022/09/23 00:42:53;;;;;;;;;;;20.30;69.30;;;;;;5012175;28;1898;-73
2022/09/23 00:45:19;;;;;;;;;;;20.30;69.30;;;;;;5008629;28;1364;-72
2022/09/23 00:47:46;;;;;;;;;;;20.30;69.30;;;;;;5008577;28;919;-73
2022/09/23 00:50:21;;;;;;;;;;;20.30;70.20;;;;;;5013671;28;891;-72
2022/09/23 00:52:47;;;;;;;;;;;20.30;69.30;;;;;;5011399;28;938;-73
2022/09/23 00:55:15;;;;;;;;;;;20.30;69.30;;;;;;5011548;28;1230;-73
2022/09/23 00:57:40;;;;;;;;;;;20.30;69.30;;;;;;5012020;28;875;-72
2022/09/23 01:00:06;;;;;;;;;;;20.30;69.40;;;;;;5012626;28;1085;-72
2022/09/23 01:02:32;;;;;;;;;;;20.30;69.40;;;;;;5012716;28;1902;-71
2022/09/23 01:04:57;;;;;;;;;;;20.30;69.30;;;;;;5012261;28;1379;-72
2022/09/23 01:07:22;;;;;;;;;;;20.30;69.40;;;;;;5012546;28;1026;-73
2022/09/23 01:09:48;;;;;;;;;;;20.30;69.40;;;;;;5012461;28;979;-72
2022/09/23 01:12:18;;;;;;;;;;;20.30;69.30;;;;;;5010439;28;939;-71
2022/09/23 01:14:55;;;;;;;;;;;20.30;69.40;;;;;;5011196;28;1259;-72
2022/09/23 01:17:30;;;;;;;;;;;20.30;69.30;;;;;;5012141;28;892;-74
2022/09/23 01:19:56;;;;;;;;;;;20.30;69.40;;;;;;5010153;28;959;-74
2022/09/23 01:22:36;;;;;;;;;;;20.30;69.40;;;;;;5012785;28;1960;-74
2022/09/23 01:25:07;;;;;;;;;;;20.30;69.40;;;;;;5011334;28;1341;-74
2022/09/23 01:27:47;;;;;;;;;;;20.30;69.40;;;;;;5008644;28;824;-73
2022/09/23 01:30:15;;;;;;;;;;;20.30;69.40;;;;;;4996319;28;1500;-74
2022/09/23 01:32:41;;;;;;;;;;;20.30;69.40;;;;;;5011426;28;1448;-74
2022/09/23 01:35:11;;;;;;;;;;;20.30;69.40;;;;;;5013119;28;1304;-74
2022/09/23 01:37:51;;;;;;;;;;;20.30;69.40;;;;;;5011450;28;1109;-73
2022/09/23 01:40:16;;;;;;;;;;;20.30;69.40;;;;;;5012065;28;947;-74
2022/09/23 01:42:46;;;;;;;;;;;20.30;69.40;;;;;;5009828;28;1902;-74
2022/09/23 01:45:12;;;;;;;;;;;20.30;69.50;;;;;;5009880;28;1278;-74
2022/09/23 01:47:50;;;;;;;;;;;20.30;69.40;;;;;;5003775;28;955;-74
2022/09/23 01:53:06;;;;;;;;;;;20.30;69.50;;;;;;5010579;28;809;-72
2022/09/23 01:55:32;;;;;;;;;;;20.30;69.40;;;;;;5011530;28;1484;-72
2022/09/23 01:58:10;;;;;;;;;;;20.30;69.50;;;;;;5010390;28;845;-71
2022/09/23 02:00:40;;;;;;;;;;;20.30;69.50;;;;;;5009153;28;1211;-71
2022/09/23 02:03:06;;;;;;;;;;;20.30;69.50;;;;;;5010467;28;1946;-71
2022/09/23 02:05:36;;;;;;;;;;;20.30;69.50;;;;;;5011140;28;1216;-71
2022/09/23 02:08:13;;;;;;;;;;;20.30;69.50;;;;;;5010704;28;1039;-71
2022/09/23 02:10:40;;;;;;;;;;;20.30;69.50;;;;;;5006458;28;1027;-71
2022/09/23 02:13:08;;;;;;;;;;;20.30;69.40;;;;;;5004241;28;911;-71
2022/09/23 02:15:35;;;;;;;;;;;20.30;69.50;;;;;;5010459;28;1268;-72
2022/09/23 02:18:02;;;;;;;;;;;20.30;69.50;;;;;;5011546;28;1073;-71
2022/09/23 02:20:29;;;;;;;;;;;20.30;69.50;;;;;;5011258;28;935;-71
2022/09/23 02:23:07;;;;;;;;;;;20.30;69.60;;;;;;5009262;28;2174;-70
2022/09/23 02:25:39;;;;;;;;;;;20.30;69.50;;;;;;5009083;28;1339;-73
2022/09/23 02:28:09;;;;;;;;;;;20.30;69.50;;;;;;5007888;28;1361;-71
2022/09/23 02:30:37;;;;;;;;;;;20.30;69.50;;;;;;5010347;28;1952;-71
2022/09/23 02:33:35;;;;;;;;;;;20.30;69.50;;;;;;5010292;28;1327;-70
2022/09/23 02:36:05;;;;;;;;;;;20.30;69.50;;;;;;4988103;28;1489;-70
2022/09/23 02:38:41;;;;;;;;;;;20.30;69.50;;;;;;5009840;28;1588;-70
2022/09/23 02:41:19;;;;;;;;;;;20.30;69.50;;;;;;5010003;28;1433;-70
2022/09/23 02:43:48;;;;;;;;;;;20.30;69.60;;;;;;5004020;28;1961;-73
2022/09/23 02:46:13;;;;;;;;;;;20.30;69.50;;;;;;5009653;28;1486;-72
2022/09/23 02:48:40;;;;;;;;;;;20.30;69.50;;;;;;5010083;28;2270;-72
2022/09/23 02:51:05;;;;;;;;;;;20.30;69.50;;;;;;5008929;28;2188;-72
2022/09/23 02:53:34;;;;;;;;;;;20.30;69.50;;;;;;5009621;28;1316;-71
2022/09/23 02:56:00;;;;;;;;;;;20.30;69.50;;;;;;5010582;28;1331;-72
2022/09/23 02:58:25;;;;;;;;;;;20.30;69.50;;;;;;5011922;28;814;-71
2022/09/23 03:01:04;;;;;;;;;;;20.30;69.50;;;;;;5008272;28;1218;-71
2022/09/23 03:03:33;;;;;;;;;;;20.30;69.60;;;;;;5010739;28;1957;-72
2022/09/23 03:05:58;;;;;;;;;;;20.30;69.60;;;;;;5007791;28;1263;-71
2022/09/23 03:08:35;;;;;;;;;;;20.30;69.60;;;;;;5010252;28;969;-71
2022/09/23 03:11:05;;;;;;;;;;;20.30;69.60;;;;;;5009036;28;920;-70
2022/09/23 03:13:34;;;;;;;;;;;20.30;69.60;;;;;;5009888;28;875;-70
2022/09/23 03:16:17;;;;;;;;;;;20.30;69.60;;;;;;5010121;28;1267;-70
2022/09/23 03:18:55;;;;;;;;;;;20.30;69.60;;;;;;5010369;28;935;-71
2022/09/23 03:21:39;;;;;;;;;;;20.30;69.60;;;;;;5010316;28;1125;-71
2022/09/23 03:24:05;;;;;;;;;;;20.30;69.60;;;;;;5007475;28;1958;-70
2022/09/23 03:26:31;;;;;;;;;;;20.30;69.60;;;;;;5010184;28;828;-70
2022/09/23 03:28:56;;;;;;;;;;;20.30;69.60;;;;;;5009616;28;867;-71
2022/09/23 03:31:21;;;;;;;;;;;20.30;69.60;;;;;;5010902;28;1183;-71
2022/09/23 03:33:49;;;;;;;;;;;20.30;69.60;;;;;;5010232;28;1301;-70
2022/09/23 03:39:09;;;;;;;;;;;20.30;69.60;;;;;;5009453;28;751;-71
2022/09/23 03:41:36;;;;;;;;;;;20.30;69.60;;;;;;5008242;28;860;-70
2022/09/23 03:44:02;;;;;;;;;;;20.30;69.60;;;;;;5009354;28;1914;-70
2022/09/23 03:46:28;;;;;;;;;;;20.30;69.60;;;;;;5009636;28;878;-70
2022/09/23 03:48:58;;;;;;;;;;;20.30;69.60;;;;;;5008900;28;800;-70
2022/09/23 03:51:24;;;;;;;;;;;20.30;69.60;;;;;;5009415;28;887;-71
2022/09/23 03:53:49;;;;;;;;;;;20.30;69.60;;;;;;5009579;28;889;-70
2022/09/23 03:56:15;;;;;;;;;;;20.30;69.60;;;;;;5008658;28;1149;-71
2022/09/23 03:58:41;;;;;;;;;;;20.30;69.60;;;;;;5009355;28;931;-70
2022/09/23 04:01:06;;;;;;;;;;;20.30;69.60;;;;;;5010342;28;784;-71
2022/09/23 04:03:32;;;;;;;;;;;20.30;69.70;;;;;;5007743;28;1902;-70
2022/09/23 04:05:57;;;;;;;;;;;20.30;69.70;;;;;;5007609;28;1822;-70
2022/09/23 04:08:22;;;;;;;;;;;20.30;69.60;;;;;;5001266;28;1074;-70
2022/09/23 04:10:49;;;;;;;;;;;20.30;69.60;;;;;;5007268;28;987;-71
2022/09/23 04:13:14;;;;;;;;;;;20.30;69.70;;;;;;4994373;28;4350;-71
2022/09/23 04:15:40;;;;;;;;;;;20.30;69.60;;;;;;5009284;28;1977;-69
2022/09/23 04:18:05;;;;;;;;;;;20.30;69.60;;;;;;5009594;28;1103;-70
2022/09/23 04:20:30;;;;;;;;;;;20.30;69.60;;;;;;5009189;28;1490;-69
2022/09/23 04:22:56;;;;;;;;;;;20.30;69.70;;;;;;5009575;28;2032;-69
2022/09/23 04:25:21;;;;;;;;;;;20.30;69.70;;;;;;5008258;28;1268;-68
2022/09/23 04:27:47;;;;;;;;;;;20.30;69.70;;;;;;5005403;28;891;-70
2022/09/23 04:30:12;;;;;;;;;;;20.30;69.70;;;;;;5009309;28;868;-70
2022/09/23 04:32:38;;;;;;;;;;;20.30;69.70;;;;;;5009077;28;1535;-70
2022/09/23 04:35:04;;;;;;;;;;;20.30;69.70;;;;;;5005761;28;1276;-70
2022/09/23 04:37:29;;;;;;;;;;;20.30;69.70;;;;;;4980882;28;1371;-70
2022/09/23 04:39:55;;;;;;;;;;;20.30;69.70;;;;;;5007984;28;795;-68
2022/09/23 04:42:20;;;;;;;;;;;20.30;69.70;;;;;;5007423;28;1910;-68
2022/09/23 04:44:46;;;;;;;;;;;20.30;69.70;;;;;;4992947;28;1277;-69
2022/09/23 04:47:12;;;;;;;;;;;20.30;69.70;;;;;;5006058;28;887;-69
2022/09/23 04:49:37;;;;;;;;;;;20.30;69.70;;;;;;5007315;28;994;-70
2022/09/23 04:52:04;;;;;;;;;;;20.30;69.70;;;;;;5009078;28;875;-69
2022/09/23 04:54:29;;;;;;;;;;;20.30;69.80;;;;;;5007403;28;1316;-69
2022/09/23 04:56:55;;;;;;;;;;;20.30;69.80;;;;;;5007643;28;850;-67
2022/09/23 04:59:20;;;;;;;;;;;20.30;69.70;;;;;;5008699;28;903;-69
2022/09/23 05:01:46;;;;;;;;;;;20.30;69.70;;;;;;5006199;28;946;-68
2022/09/23 05:04:14;;;;;;;;;;;20.30;69.70;;;;;;5007474;28;1936;-68
2022/09/23 05:06:43;;;;;;;;;;;20.30;69.70;;;;;;5004550;28;867;-69
2022/09/23 05:09:11;;;;;;;;;;;20.30;69.80;;;;;;5012061;28;888;-68
2022/09/23 05:11:37;;;;;;;;;;;20.30;69.70;;;;;;4985809;28;1292;-67
2022/09/23 05:14:02;;;;;;;;;;;20.30;69.70;;;;;;5015589;28;1276;-67
2022/09/23 05:16:28;;;;;;;;;;;20.30;69.70;;;;;;5014559;28;868;-67
2022/09/23 05:18:53;;;;;;;;;;;20.30;69.80;;;;;;4999947;28;1213;-71
2022/09/23 05:21:19;;;;;;;;;;;20.30;69.70;;;;;;5011400;28;892;-71
2022/09/23 05:23:55;;;;;;;;;;;20.30;69.80;;;;;;5009597;28;1902;-70
2022/09/23 05:26:21;;;;;;;;;;;20.30;69.80;;;;;;5012200;28;1146;-70
2022/09/23 05:28:46;;;;;;;;;;;20.30;69.80;;;;;;5010409;28;1273;-71
2022/09/23 05:31:14;;;;;;;;;;;20.30;69.80;;;;;;5010093;28;988;-71
2022/09/23 05:33:40;;;;;;;;;;;20.30;69.70;;;;;;5007982;28;1268;-71
2022/09/23 05:36:05;;;;;;;;;;;20.30;69.80;;;;;;5012838;28;1269;-70
2022/09/23 05:38:31;;;;;;;;;;;20.30;69.80;;;;;;5009949;28;920;-70
2022/09/23 05:40:57;;;;;;;;;;;20.30;69.70;;;;;;5012039;28;862;-70
2022/09/23 05:43:23;;;;;;;;;;;20.30;69.90;;;;;;5011456;28;1914;-69
2022/09/23 05:45:49;;;;;;;;;;;20.30;69.90;;;;;;5011006;28;1263;-70
2022/09/23 05:48:14;;;;;;;;;;;20.30;70.20;;;;;;5012540;28;826;-70
2022/09/23 05:50:47;;;;;;;;;;;20.30;70.10;;;;;;5011134;28;727;-70
2022/09/23 05:53:13;;;;;;;;;;;20.30;69.80;;;;;;5011647;28;1086;-70
2022/09/23 05:55:38;;;;;;;;;;;20.30;69.80;;;;;;5012386;28;1265;-71
2022/09/23 05:58:05;;;;;;;;;;;20.30;69.80;;;;;;5011789;28;1094;-70
2022/09/23 06:00:30;;;;;;;;;;;20.30;69.70;;;;;;5010433;28;804;-70
2022/09/23 06:02:56;;;;;;;;;;;20.30;69.70;;;;;;5010485;28;1906;-70
2022/09/23 06:05:21;;;;;;;;;;;20.30;69.70;;;;;;5009902;28;1505;-70
2022/09/23 06:07:47;;;;;;;;;;;20.40;69.80;;;;;;5012768;28;827;-70
2022/09/23 06:10:12;;;;;;;;;;;20.30;69.70;;;;;;5012435;28;1267;-69
2022/09/23 06:12:37;;;;;;;;;;;20.30;69.70;;;;;;5010931;28;940;-70
2022/09/23 06:15:03;;;;;;;;;;;20.30;69.70;;;;;;4994474;28;1618;-69
2022/09/23 06:17:29;;;;;;;;;;;20.30;69.70;;;;;;5010757;28;1010;-70
2022/09/23 06:19:54;;;;;;;;;;;20.30;69.70;;;;;;5010406;28;1066;-70
2022/09/23 06:22:19;;;;;;;;;;;20.30;69.70;;;;;;5010167;28;1902;-70
2022/09/23 06:24:45;;;;;;;;;;;20.30;69.80;;;;;;5011514;28;1319;-70
2022/09/23 06:27:10;;;;;;;;;;;20.30;69.70;;;;;;5010217;28;1765;-70
2022/09/23 06:29:36;;;;;;;;;;;20.40;69.80;;;;;;5009144;28;936;-70
2022/09/23 06:32:03;;;;;;;;;;;20.30;69.80;;;;;;5008231;28;1384;-70
2022/09/23 06:34:28;;;;;;;;;;;20.30;69.70;;;;;;5008163;28;1349;-70
2022/09/23 06:36:54;;;;;;;;;;;20.30;69.80;;;;;;5011760;28;940;-69
2022/09/23 06:39:19;;;;;;;;;;;20.30;69.70;;;;;;5009425;28;866;-70
2022/09/23 06:41:45;;;;;;;;;;;20.30;69.70;;;;;;5010598;28;876;-70
2022/09/23 06:44:11;;;;;;;;;;;20.30;69.80;;;;;;5007566;28;1975;-70
2022/09/23 06:46:36;;;;;;;;;;;20.30;69.80;;;;;;5010203;28;875;-69
2022/09/23 06:49:02;;;;;;;;;;;20.30;69.80;;;;;;5008116;28;908;-68
2022/09/23 06:51:27;;;;;;;;;;;20.30;69.80;;;;;;5008480;28;811;-69
2022/09/23 06:53:54;;;;;;;;;;;20.30;69.80;;;;;;5010417;28;983;-69
2022/09/23 06:56:20;;;;;;;;;;;20.30;69.80;;;;;;5010150;28;1322;-70
2022/09/23 06:58:46;;;;;;;;;;;20.30;69.80;;;;;;5008111;28;911;-69
2022/09/23 07:01:15;;;;;;;;;;;20.30;69.90;;;;;;5007480;28;1011;-70
2022/09/23 07:03:40;;;;;;;;;;;20.30;69.80;;;;;;5010585;28;1930;-68
2022/09/23 07:06:06;;;;;;;;;;;20.30;69.90;;;;;;5012385;28;1350;-70
2022/09/23 07:08:32;;;;;;;;;;;20.30;69.90;;;;;;5010949;28;1116;-70
2022/09/23 07:10:59;;;;;;;;;;;20.30;69.80;;;;;;5008417;28;2154;-69
2022/09/23 07:13:24;;;;;;;;;;;20.30;69.90;;;;;;5009721;28;1414;-69
2022/09/23 07:15:50;;;;;;;;;;;20.30;69.80;;;;;;5009733;28;1539;-68
2022/09/23 07:18:16;;;;;;;;;;;20.30;70.00;;;;;;5009681;28;875;-69
2022/09/23 07:20:42;;;;;;;;;;;20.30;69.90;;;;;;5009552;28;801;-69
2022/09/23 07:23:07;;;;;;;;;;;20.30;69.90;;;;;;5010689;28;1965;-68
2022/09/23 07:25:33;;;;;;;;;;;20.30;70.00;;;;;;5008165;28;1212;-69
2022/09/23 07:27:58;;;;;;;;;;;20.30;69.90;;;;;;5009506;28;1348;-69
2022/09/23 07:30:24;;;;;;;;;;;20.30;69.90;;;;;;5007594;28;931;-69
2022/09/23 07:32:49;;;;;;;;;;;20.30;69.90;;;;;;5009307;28;1370;-70
2022/09/23 07:35:15;;;;;;;;;;;20.30;70.00;;;;;;5010807;28;1274;-69
2022/09/23 07:37:41;;;;;;;;;;;20.30;69.90;;;;;;5010630;28;828;-68
2022/09/23 07:40:06;;;;;;;;;;;20.30;69.90;;;;;;5004396;28;2245;-68
2022/09/23 07:42:32;;;;;;;;;;;20.30;69.90;;;;;;5007149;28;1906;-68
2022/09/23 07:44:57;;;;;;;;;;;20.30;69.90;;;;;;5011607;28;1259;-67
2022/09/23 07:47:22;;;;;;;;;;;20.30;69.90;;;;;;5010764;28;1181;-68
2022/09/23 07:49:48;;;;;;;;;;;20.30;69.90;;;;;;5011224;28;1792;-69
2022/09/23 07:52:13;;;;;;;;;;;20.30;70.00;;;;;;5008345;28;1213;-68
2022/09/23 07:54:39;;;;;;;;;;;20.30;70.00;;;;;;5010835;28;2139;-68
2022/09/23 07:57:04;;;;;;;;;;;20.30;70.10;;;;;;5006845;28;2029;-68
2022/09/23 07:59:30;;;;;;;;;;;20.30;70.00;;;;;;5007555;28;1938;-68
2022/09/23 08:01:56;;;;;;;;;;;20.30;70.10;;;;;;5000311;28;868;-67
2022/09/23 08:04:27;;;;;;;;;;;20.30;70.00;;;;;;5009204;28;1886;-67
2022/09/23 08:06:53;;;;;;;;;;;20.30;70.00;;;;;;5010345;28;898;-68
2022/09/23 08:09:19;;;;;;;;;;;20.30;70.00;;;;;;5008359;28;1198;-68
2022/09/23 08:11:45;;;;;;;;;;;20.30;70.00;;;;;;5009474;28;900;-68
2022/09/23 08:14:12;;;;;;;;;;;20.30;70.10;;;;;;5008862;28;1268;-70
2022/09/23 08:16:38;;;;;;;;;;;20.30;70.20;;;;;;5009594;28;801;-70
2022/09/23 08:19:04;;;;;;;;;;;20.30;70.10;;;;;;5008107;28;911;-70
2022/09/23 08:21:29;;;;;;;;;;;20.30;70.10;;;;;;5009698;28;903;-69
2022/09/23 08:23:55;;;;;;;;;;;20.30;70.20;;;;;;5006571;28;1898;-68
2022/09/23 08:26:20;;;;;;;;;;;20.30;70.20;;;;;;5006200;28;1390;-68
2022/09/23 08:28:46;;;;;;;;;;;20.30;70.10;;;;;;5003321;28;905;-68
2022/09/23 08:31:13;;;;;;;;;;;20.30;70.20;;;;;;5008217;28;1367;-68
2022/09/23 08:33:39;;;;;;;;;;;20.30;70.20;;;;;;5007063;28;1326;-68
2022/09/23 08:36:04;;;;;;;;;;;20.30;70.20;;;;;;5007267;28;1312;-68
2022/09/23 08:38:30;;;;;;;;;;;20.30;70.10;;;;;;5009290;28;1062;-68
2022/09/23 08:41:10;;;;;;;;;;;20.30;70.20;;;;;;5008922;28;1872;-68
2022/09/23 08:43:36;;;;;;;;;;;20.30;70.20;;;;;;5011592;28;2005;-68
2022/09/23 08:46:03;;;;;;;;;;;20.30;70.20;;;;;;5014167;28;1308;-68
2022/09/23 08:48:55;;;;;;;;;;;20.30;70.20;;;;;;5012968;28;1491;-68
2022/09/23 08:51:39;;;;;;;;;;;20.30;70.20;;;;;;5010616;28;1321;-68
2022/09/23 08:54:05;;;;;;;;;;;20.30;70.20;;;;;;5012035;28;2057;-68
2022/09/23 08:56:31;;;;;;;;;;;20.30;70.30;;;;;;5012564;28;1354;-69
2022/09/23 08:59:02;;;;;;;;;;;20.30;70.30;;;;;;5007872;28;1435;-69
2022/09/23 09:01:41;;;;;;;;;;;20.30;70.30;;;;;;5012020;28;1017;-68
2022/09/23 09:04:26;;;;;;;;;;;20.30;70.30;;;;;;5011328;28;1894;-69
2022/09/23 09:06:54;;;;;;;;;;;20.30;70.40;;;;;;4986784;28;1098;-69
2022/09/23 09:09:29;;;;;;;;;;;20.30;70.30;;;;;;5012047;28;853;-69
2022/09/23 09:12:02;;;;;;;;;;;20.30;70.30;;;;;;5012424;28;951;-68
2022/09/23 09:14:35;;;;;;;;;;;20.30;70.30;;;;;;5013280;28;1205;-69
2022/09/23 09:17:06;;;;;;;;;;;20.30;70.30;;;;;;5012167;28;817;-69
2022/09/23 09:19:41;;;;;;;;;;;20.30;70.30;;;;;;5011431;28;848;-69
2022/09/23 09:22:08;;;;;;;;;;;20.30;70.30;;;;;;5009372;28;868;-69
2022/09/23 09:24:33;;;;;;;;;;;20.30;70.30;;;;;;5005106;28;1902;-69
2022/09/23 09:27:08;;;;;;;;;;;20.30;70.30;;;;;;5004763;28;1888;-68
2022/09/23 09:29:37;;;;;;;;;;;20.30;70.30;;;;;;5010950;28;903;-68
2022/09/23 09:32:15;;;;;;;;;;;20.30;70.30;;;;;;5010703;28;1600;-68
2022/09/23 09:34:46;;;;;;;;;;;20.30;70.40;;;;;;5012052;28;1381;-69
2022/09/23 09:37:23;;;;;;;;;;;20.30;70.40;;;;;;5011105;28;892;-69
2022/09/23 09:39:49;;;;;;;;;;;20.30;70.30;;;;;;5010966;28;936;-68
2022/09/23 09:42:36;;;;;;;;;;;20.30;70.30;;;;;;5008985;28;861;-68
2022/09/23 09:45:01;;;;;;;;;;;20.30;70.30;;;;;;5007382;28;1213;-69
2022/09/23 09:47:33;;;;;;;;;;;20.40;70.40;;;;;;5012081;28;1418;-69
2022/09/23 09:50:05;;;;;;;;;;;20.30;70.40;;;;;;5012135;28;860;-69
2022/09/23 09:52:30;;;;;;;;;;;20.30;70.40;;;;;;5008841;28;832;-69
2022/09/23 09:55:11;;;;;;;;;;;20.30;70.40;;;;;;5005049;28;1363;-68
2022/09/23 09:57:37;;;;;;;;;;;20.30;70.40;;;;;;5010973;28;978;-69
2022/09/23 10:00:35;;;;;;;;;;;20.30;70.40;;;;;;5011373;28;828;-69
2022/09/23 10:03:13;;;;;;;;;;;20.30;70.40;;;;;;4988292;28;1898;-69
2022/09/23 10:05:44;;;;;;;;;;;20.30;70.40;;;;;;5009879;28;1350;-69
2022/09/23 10:08:23;;;;;;;;;;;20.30;70.40;;;;;;5010707;28;792;-68
2022/09/23 10:10:52;;;;;;;;;;;20.30;70.40;;;;;;5011826;28;2120;-69
2022/09/23 10:13:18;;;;;;;;;;;20.40;70.50;;;;;;5011901;28;1299;-69
2022/09/23 10:15:43;;;;;;;;;;;20.30;70.40;;;;;;5010634;28;1408;-68
2022/09/23 10:18:18;;;;;;;;;;;20.30;70.40;;;;;;5011175;28;883;-68
2022/09/23 10:20:45;;;;;;;;;;;20.30;70.40;;;;;;5008823;28;967;-69
2022/09/23 10:23:14;;;;;;;;;;;20.40;70.50;;;;;;5008901;28;1946;-67
2022/09/23 10:25:40;;;;;;;;;;;20.30;70.40;;;;;;5008022;28;1269;-67
2022/09/23 10:28:24;;;;;;;;;;;20.30;70.30;;;;;;5009657;28;844;-68
2022/09/23 10:31:05;;;;;;;;;;;20.30;68.90;;;;;;5010725;28;813;-67
2022/09/23 10:33:30;;;;;;;;;;;20.30;65.50;;;;;;5011656;28;1149;-67
2022/09/23 10:35:56;;;;;;;;;;;20.30;62.10;;;;;;5008582;28;1347;-68
2022/09/23 10:38:21;;;;;;;;;;;20.30;63.60;;;;;;5006955;28;856;-68
2022/09/23 10:46:38;;;;;;;;;;;20.30;58.80;;;;;;5008722;28;782;-68
2022/09/23 10:49:07;;;;;;;;;;;20.20;59.90;;;;;;5007419;28;846;-67
2022/09/23 10:51:33;;;;;;;;;;;20.20;58.60;;;;;;5009977;28;836;-67
2022/09/23 10:54:04;;;;;;;;;;;20.20;57.40;;;;;;5010684;28;935;-67
2022/09/23 10:56:32;;;;;;;;;;;20.20;56.60;;;;;;5008081;28;946;-67
2022/09/23 10:59:10;;;;;;;;;;;20.20;56.00;;;;;;5010523;28;928;-68
2022/09/23 11:01:50;;;;;;;;;;;20.10;57.30;;;;;;5011176;28;1171;-68
2022/09/23 11:04:15;;;;;;;;;;;20.10;56.10;;;;;;5005873;28;1957;-68
2022/09/23 11:06:41;;;;;;;;;;;20.10;56.30;;;;;;5007608;28;858;-67
2022/09/23 11:09:16;;;;;;;;;;;20.10;57.30;;;;;;5007829;28;795;-67
2022/09/23 11:11:51;;;;;;;;;;;20.10;56.70;;;;;;5007359;28;876;-67
2022/09/23 11:14:23;;;;;;;;;;;20.10;56.80;;;;;;5009753;28;1392;-67
2022/09/23 11:16:51;;;;;;;;;;;20.10;59.00;;;;;;4992412;28;1995;-67
2022/09/23 11:19:24;;;;;;;;;;;20.10;59.90;;;;;;5007870;28;1329;-67
2022/09/23 11:21:56;;;;;;;;;;;20.10;59.10;;;;;;5004861;28;1236;-67
2022/09/23 11:24:27;;;;;;;;;;;20.10;58.80;;;;;;5006795;28;1903;-67
2022/09/23 11:27:11;;;;;;;;;;;20.10;58.10;;;;;;5011312;28;1355;-67
2022/09/23 11:29:44;;;;;;;;;;;20.00;57.10;;;;;;5009546;28;889;-67
2022/09/23 11:32:19;;;;;;;;;;;20.10;57.50;;;;;;5008355;28;1470;-67
2022/09/23 11:34:49;;;;;;;;;;;20.10;57.10;;;;;;5008926;28;1366;-67
2022/09/23 11:37:16;;;;;;;;;;;20.00;56.90;;;;;;5008746;28;864;-67
2022/09/23 11:39:45;;;;;;;;;;;20.00;56.10;;;;;;5007278;28;1473;-67
2022/09/23 11:42:12;;;;;;;;;;;20.00;56.10;;;;;;5008571;28;808;-67
2022/09/23 11:44:40;;;;;;;;;;;20.00;56.70;;;;;;5008283;28;1973;-67
2022/09/23 11:47:15;;;;;;;;;;;20.00;56.60;;;;;;5007093;28;836;-67
2022/09/23 11:49:50;;;;;;;;;;;20.00;57.00;;;;;;5008957;28;853;-67
2022/09/23 11:52:26;;;;;;;;;;;20.00;57.10;;;;;;5008069;28;1085;-67
2022/09/23 11:55:12;;;;;;;;;;;20.00;56.80;;;;;;5005963;28;1316;-67
2022/09/23 11:57:42;;;;;;;;;;;20.00;57.60;;;;;;5008888;28;984;-67
2022/09/23 12:00:15;;;;;;;;;;;20.00;56.70;;;;;;5008747;28;812;-67
2022/09/23 12:03:00;;;;;;;;;;;20.00;56.80;;;;;;5007593;28;1959;-67
2022/09/23 12:05:30;;;;;;;;;;;20.00;52.80;;;;;;5006076;28;1279;-68
2022/09/23 12:08:04;;;;;;;;;;;20.10;54.00;;;;;;5008931;28;956;-67
2022/09/23 12:10:48;;;;;;;;;;;20.20;54.30;;;;;;5008924;28;884;-67
2022/09/23 12:13:20;;;;;;;;;;;20.20;54.80;;;;;;5008946;28;920;-67
2022/09/23 12:16:04;;;;;;;;;;;20.20;55.80;;;;;;5009599;28;1779;-67
2022/09/23 12:18:34;;;;;;;;;;;20.20;56.40;;;;;;5008821;28;859;-67
2022/09/23 12:21:03;;;;;;;;;;;20.20;56.60;;;;;;5003813;28;832;-67
2022/09/23 12:23:31;;;;;;;;;;;20.20;57.00;;;;;;5008493;28;1954;-67
2022/09/23 12:25:59;;;;;;;;;;;20.20;57.20;;;;;;5012327;28;1190;-67
2022/09/23 12:28:28;;;;;;;;;;;20.20;57.00;;;;;;5008896;28;1964;-68
2022/09/23 12:30:55;;;;;;;;;;;20.20;57.20;;;;;;5009693;28;2127;-67
2022/09/23 12:33:24;;;;;;;;;;;20.20;56.90;;;;;;5005430;28;1776;-67
2022/09/23 12:35:52;;;;;;;;;;;20.20;56.60;;;;;;5000359;28;1365;-66
2022/09/23 12:38:25;;;;;;;;;;;20.20;56.80;;;;;;5010232;28;1424;-67
2022/09/23 12:40:51;;;;;;;;;;;20.20;57.00;;;;;;5010252;28;2147;-66
2022/09/23 12:43:29;;;;;;;;;;;20.20;57.40;;;;;;5009284;28;1902;-66
2022/09/23 12:46:14;;;;;;;;;;;20.20;57.50;;;;;;5013631;28;2155;-67
2022/09/23 12:48:44;;;;;;;;;;;20.30;54.30;;;;;;5009976;28;1930;-66
2022/09/23 12:51:16;;;;;;;;;;;20.40;55.30;;;;;;5009142;28;1258;-66
2022/09/23 12:53:51;;;;;;;;;;;20.40;55.40;;;;;;5010630;28;1253;-65
2022/09/23 12:56:18;;;;;;;;;;;20.40;55.60;;;;;;5002559;28;1285;-65
2022/09/23 12:58:43;;;;;;;;;;;20.40;56.40;;;;;;5008671;28;1054;-64
2022/09/23 13:01:18;;;;;;;;;;;20.40;55.90;;;;;;5011534;28;1118;-64
2022/09/23 13:06:50;;;;;;;;;;;20.40;55.40;;;;;;5005819;28;1653;-66
2022/09/23 13:09:20;;;;;;;;;;;20.50;55.60;;;;;;5010806;28;832;-67
2022/09/23 13:11:46;;;;;;;;;;;20.70;55.60;;;;;;5011444;28;1062;-67
2022/09/23 13:14:14;;;;;;;;;;;20.70;55.60;;;;;;5008725;28;1217;-67
2022/09/23 13:16:40;;;;;;;;;;;20.80;55.70;;;;;;5008887;28;1311;-67
2022/09/23 13:19:07;;;;;;;;;;;20.80;54.70;;;;;;5009861;28;875;-67
2022/09/23 13:21:56;;;;;;;;;;;20.70;54.30;;;;;;5008125;28;1260;-67
2022/09/23 13:24:22;;;;;;;;;;;20.70;54.50;;;;;;4997813;28;1899;-67
2022/09/23 13:27:06;;;;;;;;;;;20.60;53.80;;;;;;5009593;28;1022;-67
2022/09/23 13:29:40;;;;;;;;;;;20.60;53.50;;;;;;5010563;28;1245;-70
2022/09/23 13:32:10;;;;;;;;;;;20.50;54.70;;;;;;5010163;28;1439;-67
2022/09/23 13:34:37;;;;;;;;;;;20.50;55.10;;;;;;5009086;28;1873;-68
2022/09/23 13:37:15;;;;;;;;;;;20.50;54.20;;;;;;5010020;28;1035;-68
2022/09/23 13:39:41;;;;;;;;;;;20.50;54.40;;;;;;5009809;28;1502;-68
2022/09/23 13:42:07;;;;;;;;;;;20.40;54.70;;;;;;5009595;28;1353;-66
2022/09/23 13:44:34;;;;;;;;;;;20.40;54.70;;;;;;5007373;28;1973;-67
2022/09/23 13:47:02;;;;;;;;;;;20.40;55.40;;;;;;5009873;28;830;-67
2022/09/23 13:49:28;;;;;;;;;;;20.40;54.90;;;;;;5008609;28;936;-67
2022/09/23 13:51:54;;;;;;;;;;;20.40;55.10;;;;;;5010006;28;903;-67
2022/09/23 13:54:27;;;;;;;;;;;20.40;54.80;;;;;;5008825;28;1303;-67
2022/09/23 13:56:53;;;;;;;;;;;20.30;54.70;;;;;;5008398;28;804;-67
2022/09/23 13:59:21;;;;;;;;;;;20.30;54.90;;;;;;5006344;28;970;-69
2022/09/23 14:01:47;;;;;;;;;;;20.30;55.40;;;;;;5009575;28;1006;-67
2022/09/23 14:04:22;;;;;;;;;;;20.30;55.60;;;;;;5010461;28;1906;-67
2022/09/23 14:06:48;;;;;;;;;;;20.30;55.80;;;;;;5009616;28;892;-67
2022/09/23 14:09:13;;;;;;;;;;;20.30;56.30;;;;;;5009334;28;903;-67
2022/09/23 14:11:39;;;;;;;;;;;20.20;55.70;;;;;;5009550;28;1018;-67
2022/09/23 14:14:06;;;;;;;;;;;20.30;55.30;;;;;;5007253;28;1273;-68
2022/09/23 14:16:31;;;;;;;;;;;20.30;55.60;;;;;;5008054;28;859;-69
2022/09/23 14:18:57;;;;;;;;;;;20.20;55.50;;;;;;5006609;28;1485;-67
2022/09/23 14:21:26;;;;;;;;;;;20.20;55.90;;;;;;5008592;28;910;-68
2022/09/23 14:23:51;;;;;;;;;;;20.20;56.20;;;;;;5009246;28;1902;-68
2022/09/23 14:26:17;;;;;;;;;;;20.20;56.00;;;;;;5008695;28;1292;-68
2022/09/23 14:28:42;;;;;;;;;;;20.20;56.40;;;;;;5009319;28;844;-68
2022/09/23 14:31:07;;;;;;;;;;;20.20;56.10;;;;;;5011613;28;1054;-68
2022/09/23 14:33:33;;;;;;;;;;;20.20;56.10;;;;;;5008714;28;934;-69
2022/09/23 14:36:05;;;;;;;;;;;20.20;56.10;;;;;;5008180;28;1349;-68
2022/09/23 14:41:20;;;;;;;;;;;20.20;56.30;;;;;;5005175;28;798;-70
2022/09/23 14:43:53;;;;;;;;;;;20.20;56.60;;;;;;5006919;28;1966;-70
2022/09/23 14:46:19;;;;;;;;;;;20.20;56.80;;;;;;5005380;28;1414;-70
2022/09/23 14:48:55;;;;;;;;;;;20.20;57.00;;;;;;5000967;28;1187;-70
2022/09/23 14:51:20;;;;;;;;;;;20.20;57.00;;;;;;5008089;28;903;-70
2022/09/23 14:53:47;;;;;;;;;;;20.20;57.00;;;;;;5008101;28;797;-68
2022/09/23 14:56:16;;;;;;;;;;;20.20;57.70;;;;;;5004028;28;1254;-69
2022/09/23 14:58:51;;;;;;;;;;;20.20;57.10;;;;;;5004311;28;820;-69
2022/09/23 15:01:33;;;;;;;;;;;20.20;57.10;;;;;;5062022;27;1207;-69
2022/09/23 15:03:59;;;;;;;;;;;20.20;57.20;;;;;;5053046;28;792;-71